Time;durP1;ratioP1;P1;durP2;ratioP2;P2;SDS_P1;SDS_P2;PMS_P1;PMS_P2;Temp;Humidity;BMP_temperature;BMP_pressure;BME280_temperature;BME280_humidity;BME280_pressure;Samples;Min_cycle;Max_cycle;Signal;HPM_P1;HPM_P2
2021/04/07 00:00:22;;;;;;;8.90;4.87;;;;;;;13.43;46.38;100028.09;143751;607;46018;-77
2021/04/07 00:02:53;;;;;;;6.90;4.47;;;;;;;13.45;46.28;100024.69;143751;588;46019;-75
2021/04/07 00:05:22;;;;;;;8.75;3.95;;;;;;;13.49;45.91;100023.97;143752;600;46018;-76
2021/04/07 00:07:50;;;;;;;7.43;3.90;;;;;;;13.51;46.31;100022.28;143753;604;46012;-75
2021/04/07 00:10:20;;;;;;;8.77;3.62;;;;;;;13.65;45.15;100032.22;143750;572;47008;-76
2021/04/07 00:12:47;;;;;;;7.43;4.10;;;;;;;13.73;44.96;100031.56;143752;588;46018;-77
2021/04/07 00:15:24;;;;;;;11.80;4.75;;;;;;;13.89;44.76;100034.59;143752;581;48025;-76
2021/04/07 00:17:52;;;;;;;8.73;3.85;;;;;;;13.95;44.60;100034.75;143752;586;46013;-79
2021/04/07 00:20:23;;;;;;;5.47;4.10;;;;;;;14.05;45.07;100026.34;143752;591;46018;-75
2021/04/07 00:22:50;;;;;;;7.03;3.47;;;;;;;14.09;44.69;100033.41;143751;611;46012;-77
2021/04/07 00:25:22;;;;;;;10.13;4.18;;;;;;;14.22;44.35;100040.69;143753;568;49008;-75
2021/04/07 00:27:56;;;;;;;8.82;3.90;;;;;;;14.23;44.33;100031.13;143749;611;46033;-76
2021/04/07 00:30:28;;;;;;;7.83;3.53;;;;;;;14.28;43.72;100033.03;143751;565;47008;-76
2021/04/07 00:32:55;;;;;;;10.57;3.65;;;;;;;14.38;44.17;100039.34;143751;562;46019;-77
2021/04/07 00:35:23;;;;;;;9.05;4.12;;;;;;;14.37;44.37;100029.75;143754;595;46018;-76
2021/04/07 00:37:51;;;;;;;5.97;3.75;;;;;;;14.42;44.24;100028.13;143749;561;48020;-76
2021/04/07 00:40:19;;;;;;;8.32;3.90;;;;;;;14.43;44.56;100029.91;143753;568;45019;-75
2021/04/07 00:42:49;;;;;;;9.20;4.78;;;;;;;14.37;43.89;100023.66;143753;571;46012;-75
2021/04/07 00:45:16;;;;;;;8.35;4.40;;;;;;;14.42;44.26;100030.75;143748;585;48012;-75
2021/04/07 00:47:43;;;;;;;8.60;4.05;;;;;;;14.47;44.51;100033.47;143751;603;45019;-75
2021/04/07 00:50:12;;;;;;;9.93;4.37;;;;;;;14.40;44.33;100047.22;143754;660;46010;-77
2021/04/07 00:52:39;;;;;;;9.63;4.50;;;;;;;14.41;44.30;100039.41;143752;583;46015;-77
2021/04/07 00:55:07;;;;;;;6.57;3.95;;;;;;;14.52;44.14;100040.59;143757;644;46012;-77
2021/04/07 00:57:34;;;;;;;7.35;3.65;;;;;;;14.51;44.16;100037.94;143751;666;46022;-76
2021/04/07 01:00:01;;;;;;;9.43;4.10;;;;;;;14.51;44.14;100044.03;143754;665;46012;-76
2021/04/07 01:02:28;;;;;;;6.47;3.80;;;;;;;14.62;44.39;100035.62;143753;576;46019;-77
2021/04/07 01:04:56;;;;;;;8.25;3.97;;;;;;;14.55;45.27;100032.84;143753;742;49012;-76
2021/04/07 01:07:23;;;;;;;6.50;3.60;;;;;;;14.47;45.12;100043.91;143749;564;48020;-76
2021/04/07 01:09:50;;;;;;;8.63;4.18;;;;;;;14.50;44.69;100049.19;143755;563;46011;-76
2021/04/07 01:12:17;;;;;;;7.07;3.80;;;;;;;14.48;45.35;100050.87;143753;624;46014;-76
2021/04/07 01:14:44;;;;;;;7.47;3.60;;;;;;;14.64;45.41;100060.00;143754;648;49012;-77
2021/04/07 01:17:11;;;;;;;6.57;4.15;;;;;;;14.61;45.86;100058.22;143754;568;46019;-76
2021/04/07 01:19:37;;;;;;;12.25;5.53;;;;;;;14.60;46.36;100053.81;143752;572;46018;-76
2021/04/07 01:22:05;;;;;;;10.07;4.30;;;;;;;14.45;47.06;100059.50;143754;695;46012;-77
2021/04/07 01:24:33;;;;;;;8.07;4.00;;;;;;;14.56;44.12;100046.78;143754;644;46019;-76
2021/04/07 01:27:00;;;;;;;11.65;5.03;;;;;;;14.47;44.60;100046.53;143754;586;46012;-76
2021/04/07 01:29:28;;;;;;;12.55;4.15;;;;;;;14.65;43.91;100047.00;143751;660;47008;-76
2021/04/07 01:31:56;;;;;;;9.02;4.15;;;;;;;14.65;44.42;100048.75;143755;570;46019;-79
2021/04/07 01:34:25;;;;;;;6.22;4.03;;;;;;;14.74;43.69;100028.06;143754;594;46018;-77
2021/04/07 01:36:52;;;;;;;6.90;3.87;;;;;;;14.73;43.32;100029.78;143751;607;47022;-76
2021/04/07 01:39:20;;;;;;;8.32;3.92;;;;;;;14.79;43.41;100039.47;143753;568;46019;-77
2021/04/07 01:41:48;;;;;;;7.72;3.30;;;;;;;14.84;43.23;100042.22;143755;563;46012;-78
2021/04/07 01:44:17;;;;;;;12.15;4.07;;;;;;;14.87;43.27;100052.72;143755;587;46010;-79
2021/04/07 01:46:44;;;;;;;12.85;4.35;;;;;;;14.95;43.07;100046.84;143749;575;48020;-76
2021/04/07 01:49:12;;;;;;;7.20;3.90;;;;;;;14.99;42.86;100042.56;143753;587;46012;-79
2021/04/07 01:51:39;;;;;;;12.05;4.47;;;;;;;14.96;43.17;100040.75;143757;564;46018;-77
2021/04/07 01:54:08;;;;;;;7.18;4.03;;;;;;;15.00;43.05;100034.75;143757;641;46010;-80
2021/04/07 01:56:48;;;;;;;9.63;4.32;;;;;;;14.89;43.11;100053.63;143749;714;49020;-78
2021/04/07 01:59:18;;;;;;;7.65;3.75;;;;;;;14.93;42.92;100042.44;143753;618;47008;-78
2021/04/07 02:01:45;;;;;;;7.95;3.80;;;;;;;14.97;43.02;100049.47;143751;568;46012;-77
2021/04/07 02:04:13;;;;;;;7.53;4.32;;;;;;;15.06;42.77;100040.97;143753;633;47012;-76
2021/04/07 02:06:41;;;;;;;7.07;4.00;;;;;;;15.13;42.89;100043.75;143751;635;47022;-77
2021/04/07 02:09:08;;;;;;;8.20;4.00;;;;;;;15.15;43.16;100042.06;143750;568;47020;-76
2021/04/07 02:11:38;;;;;;;8.77;4.37;;;;;;;15.22;43.04;100043.06;143754;602;46018;-76
2021/04/07 02:14:05;;;;;;;13.52;4.72;;;;;;;15.24;42.92;100034.41;143754;681;49012;-76
2021/04/07 02:16:33;;;;;;;12.95;4.78;;;;;;;15.28;42.50;100029.25;143749;600;48020;-76
2021/04/07 02:19:00;;;;;;;8.73;3.90;;;;;;;15.24;43.26;100034.41;143751;601;47008;-76
2021/04/07 02:21:27;;;;;;;10.95;4.43;;;;;;;15.31;42.70;100038.03;143754;679;45032;-78
2021/04/07 02:23:54;;;;;;;10.10;4.35;;;;;;;15.25;43.30;100035.28;143755;571;46016;-76
2021/04/07 02:26:21;;;;;;;13.65;5.15;;;;;;;15.16;43.46;100046.41;143751;579;47022;-76
2021/04/07 02:28:48;;;;;;;12.37;4.78;;;;;;;15.20;43.28;100047.34;143755;584;46012;-76
2021/04/07 02:31:15;;;;;;;8.02;4.03;;;;;;;15.22;43.12;100030.00;143752;637;46013;-76
2021/04/07 02:33:42;;;;;;;9.70;4.75;;;;;;;15.29;43.50;100036.22;143753;563;48008;-76
2021/04/07 02:36:09;;;;;;;9.88;5.40;;;;;;;15.16;43.72;100030.75;143753;611;47022;-76
2021/04/07 02:38:36;;;;;;;13.93;5.75;;;;;;;15.15;44.32;100034.22;143750;575;46019;-75
2021/04/07 02:41:03;;;;;;;10.07;5.05;;;;;;;14.91;45.35;100028.44;143754;581;45018;-76
2021/04/07 02:43:30;;;;;;;9.38;5.00;;;;;;;14.98;44.24;100023.41;143754;571;47012;-75
2021/04/07 02:45:59;;;;;;;10.00;4.15;;;;;;;15.05;44.05;100024.44;143751;588;46020;-76
2021/04/07 02:48:26;;;;;;;11.18;4.32;;;;;;;14.96;45.86;100032.94;143751;705;48008;-76
2021/04/07 02:50:54;;;;;;;11.30;4.12;;;;;;;14.97;45.24;100032.06;143753;700;45018;-76
2021/04/07 02:53:21;;;;;;;11.38;4.68;;;;;;;14.88;45.21;100023.16;143754;603;48012;-76
2021/04/07 02:55:48;;;;;;;8.88;4.50;;;;;;;14.83;45.07;100027.37;143754;567;46018;-76
2021/04/07 02:58:15;;;;;;;9.73;4.55;;;;;;;14.85;45.56;100018.75;143751;592;46012;-77
2021/04/07 03:00:42;;;;;;;10.63;4.82;;;;;;;14.79;45.61;100026.44;143754;582;46018;-75
2021/04/07 03:03:09;;;;;;;10.95;4.50;;;;;;;14.82;45.31;100033.47;143756;580;46012;-75
2021/04/07 03:05:36;;;;;;;10.80;4.47;;;;;;;14.73;45.30;100031.50;143752;567;46022;-76
2021/04/07 03:08:03;;;;;;;11.95;4.95;;;;;;;14.72;45.66;100033.25;143752;586;46019;-75
2021/04/07 03:10:31;;;;;;;10.93;4.93;;;;;;;14.54;46.70;100051.06;143752;576;46032;-75
2021/04/07 03:12:57;;;;;;;12.27;4.78;;;;;;;14.69;44.99;100055.78;143753;567;48012;-76
2021/04/07 03:15:25;;;;;;;10.65;4.53;;;;;;;14.67;45.73;100037.50;143748;684;48020;-76
2021/04/07 03:17:52;;;;;;;11.35;4.05;;;;;;;14.71;43.50;100047.16;143755;630;46018;-78
2021/04/07 03:20:19;;;;;;;8.00;3.65;;;;;;;14.81;42.65;100039.53;143750;606;46012;-75
2021/04/07 03:22:46;;;;;;;8.48;4.12;;;;;;;14.96;42.65;100046.00;143752;677;47011;-75
2021/04/07 03:25:13;;;;;;;11.88;4.37;;;;;;;15.02;41.91;100027.84;143750;577;46021;-76
2021/04/07 03:27:40;;;;;;;11.63;4.35;;;;;;;15.12;41.52;100038.50;143753;572;46018;-75
2021/04/07 03:30:08;;;;;;;9.13;4.32;;;;;;;15.18;41.70;100038.62;143753;565;46012;-75
2021/04/07 03:32:36;;;;;;;11.73;4.93;;;;;;;15.20;42.06;100042.12;143755;644;48012;-75
2021/04/07 03:35:04;;;;;;;10.73;3.80;;;;;;;15.27;41.78;100049.28;143751;616;46012;-75
2021/04/07 03:37:31;;;;;;;8.57;3.55;;;;;;;15.35;40.94;100042.47;143749;615;48008;-76
2021/04/07 03:39:58;;;;;;;8.20;3.85;;;;;;;15.40;41.35;100040.84;143754;575;46012;-75
2021/04/07 03:42:25;;;;;;;16.48;4.53;;;;;;;15.42;41.86;100041.75;143753;629;49012;-75
2021/04/07 03:44:52;;;;;;;12.70;4.60;;;;;;;15.41;41.13;100041.72;143753;614;47022;-75
2021/04/07 03:47:19;;;;;;;8.88;4.22;;;;;;;15.44;41.13;100040.03;143752;591;47008;-75
2021/04/07 03:49:46;;;;;;;15.00;4.45;;;;;;;15.38;41.42;100044.25;143755;585;45034;-77
2021/04/07 03:52:13;;;;;;;7.30;4.12;;;;;;;15.43;41.36;100040.91;143754;655;49012;-75
2021/04/07 03:54:43;;;;;;;12.85;4.32;;;;;;;15.40;40.90;100056.50;143750;627;48021;-75
2021/04/07 03:57:10;;;;;;;8.52;4.00;;;;;;;15.35;41.30;100054.66;143753;562;46018;-75
2021/04/07 03:59:37;;;;;;;12.05;4.57;;;;;;;15.41;41.60;100047.81;143752;578;46014;-76
2021/04/07 04:02:04;;;;;;;12.30;3.80;;;;;;;15.43;41.40;100048.75;143757;576;46019;-75
2021/04/07 04:04:31;;;;;;;11.45;4.18;;;;;;;15.42;41.72;100028.69;143751;578;48022;-76
2021/04/07 04:06:58;;;;;;;9.70;4.03;;;;;;;15.35;42.28;100046.81;143753;569;46019;-75
2021/04/07 04:09:25;;;;;;;10.45;4.32;;;;;;;15.33;42.38;100056.38;143754;567;46014;-75
2021/04/07 04:11:52;;;;;;;11.15;4.65;;;;;;;15.38;40.85;100065.16;143753;593;50012;-75
2021/04/07 04:14:19;;;;;;;13.38;4.75;;;;;;;15.31;41.59;100065.88;143750;643;48020;-76
2021/04/07 04:16:46;;;;;;;14.10;5.30;;;;;;;15.41;41.69;100070.44;143753;574;46010;-77
2021/04/07 04:19:13;;;;;;;14.00;4.25;;;;;;;15.35;41.74;100059.88;143751;564;46014;-75
2021/04/07 04:21:40;;;;;;;14.43;4.68;;;;;;;15.35;40.88;100068.59;143755;568;46018;-76
2021/04/07 04:24:08;;;;;;;14.63;4.87;;;;;;;15.34;42.31;100051.16;143754;564;46018;-75
2021/04/07 04:26:35;;;;;;;9.10;4.20;;;;;;;15.37;42.47;100066.91;143751;656;46018;-75
2021/04/07 04:29:02;;;;;;;15.70;4.75;;;;;;;15.36;41.53;100061.66;143753;658;46017;-75
2021/04/07 04:31:30;;;;;;;10.10;4.50;;;;;;;15.32;41.84;100062.41;143754;631;48013;-76
2021/04/07 04:33:58;;;;;;;9.27;4.37;;;;;;;15.40;42.01;100071.31;143752;574;46018;-76
2021/04/07 04:36:25;;;;;;;11.35;4.25;;;;;;;15.39;41.67;100078.28;143754;632;46010;-75
2021/04/07 04:38:52;;;;;;;7.30;4.10;;;;;;;15.38;41.88;100075.59;143757;574;46012;-75
2021/04/07 04:41:22;;;;;;;7.82;3.55;;;;;;;15.41;41.73;100076.56;143754;603;49008;-75
2021/04/07 04:43:49;;;;;;;16.73;4.85;;;;;;;15.38;42.19;100086.06;143754;632;46012;-75
2021/04/07 04:46:16;;;;;;;12.98;4.05;;;;;;;15.49;41.97;100097.63;143754;568;46010;-75
2021/04/07 04:48:43;;;;;;;12.23;4.20;;;;;;;15.32;42.23;100096.38;143755;576;46012;-75
2021/04/07 04:51:10;;;;;;;15.07;5.50;;;;;;;15.38;42.83;100096.50;143754;567;49012;-75
2021/04/07 04:53:37;;;;;;;9.63;4.35;;;;;;;15.40;43.49;100093.09;143751;569;48023;-75
2021/04/07 04:56:05;;;;;;;16.65;4.70;;;;;;;15.25;43.81;100097.97;143753;609;46018;-74
2021/04/07 04:58:32;;;;;;;10.63;4.10;;;;;;;15.22;43.38;100098.78;143753;568;46013;-76
2021/04/07 05:00:59;;;;;;;11.35;4.40;;;;;;;15.39;43.31;100100.88;143753;645;49012;-75
2021/04/07 05:03:26;;;;;;;20.67;11.07;;;;;;;15.27;44.50;100106.75;143754;595;46012;-75
2021/04/07 05:05:53;;;;;;;97.43;58.90;;;;;;;15.28;44.34;100102.38;143751;574;46018;-75
2021/04/07 05:08:20;;;;;;;24.42;14.50;;;;;;;15.28;43.13;100105.00;143753;579;46013;-75
2021/04/07 05:10:48;;;;;;;15.52;6.50;;;;;;;15.42;42.12;100106.16;143754;614;46012;-75
2021/04/07 05:13:15;;;;;;;10.18;4.43;;;;;;;15.47;41.53;100110.66;143753;638;46018;-75
2021/04/07 05:15:42;;;;;;;14.98;4.65;;;;;;;15.54;42.06;100105.56;143751;661;47009;-75
2021/04/07 05:18:16;;;;;;;13.10;4.18;;;;;;;15.73;42.16;100106.84;143754;562;46012;-74
2021/04/07 05:20:43;;;;;;;11.05;4.90;;;;;;;15.80;42.19;100098.31;143754;577;48012;-75
2021/04/07 05:23:11;;;;;;;11.27;5.07;;;;;;;15.79;42.53;100099.13;143750;577;48021;-75
2021/04/07 05:25:38;;;;;;;13.15;4.90;;;;;;;15.79;43.91;100104.38;143750;576;46018;-75
2021/04/07 05:28:06;;;;;;;14.20;4.93;;;;;;;15.81;43.52;100094.84;143753;576;46012;-75
2021/04/07 05:33:19;;;;;;;16.85;6.40;;;;;;;15.92;43.26;100099.44;143751;648;46014;-75
2021/04/07 05:35:46;;;;;;;14.85;7.32;;;;;;;16.01;42.35;100101.34;143750;675;46013;-76
2021/04/07 05:38:13;;;;;;;22.00;8.48;;;;;;;15.98;43.15;100103.00;143749;578;46019;-75
2021/04/07 05:40:44;;;;;;;16.87;7.70;;;;;;;16.15;42.58;100098.97;143749;572;48012;-75
2021/04/07 05:43:11;;;;;;;15.07;6.45;;;;;;;16.13;42.57;100104.16;143748;612;48022;-75
2021/04/07 05:45:38;;;;;;;13.52;5.85;;;;;;;16.14;42.95;100105.94;143750;636;46018;-74
2021/04/07 05:48:09;;;;;;;14.60;5.47;;;;;;;16.23;42.34;100099.09;143750;595;46008;-75
2021/04/07 05:50:41;;;;;;;13.30;4.53;;;;;;;16.31;42.28;100110.59;143753;642;46018;-75
2021/04/07 05:53:08;;;;;;;10.82;4.12;;;;;;;16.27;41.81;100106.19;143750;641;48023;-75
2021/04/07 05:55:36;;;;;;;10.65;3.90;;;;;;;16.28;41.82;100107.94;143750;675;46010;-75
2021/04/07 05:58:07;;;;;;;10.23;3.80;;;;;;;16.34;42.02;100093.22;143748;587;46014;-75
2021/04/07 06:00:35;;;;;;;9.63;4.32;;;;;;;16.40;42.05;100097.69;143751;564;49012;-75
2021/04/07 06:03:05;;;;;;;14.68;4.87;;;;;;;16.44;41.49;100109.97;143754;618;46022;-73
2021/04/07 06:05:32;;;;;;;8.68;4.18;;;;;;;16.45;41.37;100100.38;143751;591;46013;-78
2021/04/07 06:08:00;;;;;;;8.50;4.65;;;;;;;16.49;41.30;100095.22;143751;581;46012;-75
2021/04/07 06:10:28;;;;;;;14.25;5.32;;;;;;;16.48;41.02;100101.31;143750;576;47012;-74
2021/04/07 06:12:55;;;;;;;10.40;4.35;;;;;;;16.59;40.52;100101.50;143748;569;48022;-74
2021/04/07 06:15:23;;;;;;;9.00;4.28;;;;;;;16.66;40.53;100094.63;143750;607;47008;-74
2021/04/07 06:17:56;;;;;;;9.77;5.07;;;;;;;16.68;40.14;100106.88;143753;579;46012;-74
2021/04/07 06:20:27;;;;;;;9.13;4.40;;;;;;;16.74;41.18;100098.25;143750;580;48012;-74
2021/04/07 06:22:55;;;;;;;11.85;4.72;;;;;;;16.81;40.00;100105.37;143749;568;46019;-74
2021/04/07 06:25:22;;;;;;;17.15;5.32;;;;;;;16.92;40.98;100103.81;143750;591;47008;-75
2021/04/07 06:27:51;;;;;;;13.35;4.78;;;;;;;16.96;39.86;100110.88;143752;575;45029;-74
2021/04/07 06:30:20;;;;;;;10.68;4.82;;;;;;;17.02;39.77;100105.72;143751;562;50013;-74
2021/04/07 06:32:47;;;;;;;11.15;4.62;;;;;;;17.07;39.98;100118.87;143749;580;46012;-76
2021/04/07 06:35:14;;;;;;;10.20;4.72;;;;;;;17.14;40.09;100112.88;143747;571;47010;-75
2021/04/07 06:37:41;;;;;;;10.05;4.85;;;;;;;17.23;39.52;100101.66;143752;580;46011;-75
2021/04/07 06:40:09;;;;;;;14.02;4.40;;;;;;;17.27;39.65;100112.19;143751;584;47012;-75
2021/04/07 06:42:37;;;;;;;11.27;3.97;;;;;;;17.28;39.54;100108.72;143754;592;45022;-74
2021/04/07 06:45:05;;;;;;;11.02;4.05;;;;;;;17.27;39.85;100112.19;143749;609;48008;-78
2021/04/07 06:47:34;;;;;;;12.57;4.37;;;;;;;17.35;39.65;100106.19;143753;599;45025;-75
2021/04/07 06:50:01;;;;;;;9.57;4.00;;;;;;;17.38;39.15;100106.22;143751;574;46018;-74
2021/04/07 06:52:29;;;;;;;11.70;4.82;;;;;;;17.41;39.97;100099.28;211996;61;73289;-74
2021/04/07 06:54:56;;;;;;;9.13;4.75;;;;;;;17.41;38.64;100098.41;279341;65;317373;-74
2021/04/07 06:57:23;;;;;;;7.62;4.50;;;;;;;17.44;38.65;100091.47;143361;618;381695;-75
2021/04/07 06:59:50;;;;;;;15.38;4.45;;;;;;;17.48;38.74;100101.13;143753;563;46015;-73
2021/04/07 07:02:17;;;;;;;14.80;4.93;;;;;;;17.62;42.53;100087.31;143751;648;46020;-75
2021/04/07 07:04:45;;;;;;;12.35;4.50;;;;;;;17.58;43.57;100091.66;143751;610;46018;-75
2021/04/07 07:07:12;;;;;;;12.13;4.22;;;;;;;17.63;42.48;100089.97;143754;581;47012;-73
2021/04/07 07:09:39;;;;;;;18.75;7.32;;;;;;;17.66;46.90;100097.87;143751;600;49012;-74
2021/04/07 07:12:07;;;;;;;20.60;6.90;;;;;;;17.71;46.09;100096.19;143750;609;48022;-75
2021/04/07 07:14:33;;;;;;;15.90;5.93;;;;;;;17.75;44.86;100099.72;143753;658;46011;-76
2021/04/07 07:17:01;;;;;;;10.68;4.60;;;;;;;17.77;45.33;100096.28;143752;577;46008;-76
2021/04/07 07:19:34;;;;;;;16.45;5.20;;;;;;;17.78;45.35;100103.28;143751;608;48012;-74
2021/04/07 07:22:06;;;;;;;12.60;5.00;;;;;;;17.80;44.34;100098.06;143749;609;48023;-74
2021/04/07 07:24:38;;;;;;;9.27;5.18;;;;;;;17.77;44.91;100100.66;143749;680;47008;-76
2021/04/07 07:27:09;;;;;;;12.57;4.95;;;;;;;17.80;44.73;100099.81;143751;620;46012;-74
2021/04/07 07:29:37;;;;;;;8.85;5.00;;;;;;;17.77;43.36;100104.16;143753;583;46019;-74
2021/04/07 07:32:10;;;;;;;11.25;5.70;;;;;;;17.85;44.14;100104.25;143751;576;48022;-75
2021/04/07 07:34:38;;;;;;;12.43;5.87;;;;;;;17.81;44.30;100105.06;143749;567;47008;-73
2021/04/07 07:37:09;;;;;;;10.15;5.20;;;;;;;17.81;43.07;100099.81;143751;562;46019;-74
2021/04/07 07:39:37;;;;;;;10.85;5.82;;;;;;;17.82;42.89;100104.22;143752;606;48012;-74
2021/04/07 07:42:08;;;;;;;10.45;5.05;;;;;;;17.90;42.42;100109.53;143749;578;46012;-74
2021/04/07 07:44:39;;;;;;;14.13;4.97;;;;;;;17.94;42.66;100111.34;143750;572;46577;-72
2021/04/07 07:47:26;;;;;;;18.20;5.70;;;;;;;17.94;43.64;100108.72;143752;635;46012;-74
2021/04/07 07:50:14;;;;;;;18.25;6.18;;;;;;;17.97;42.83;100096.53;143749;571;47012;-74
2021/04/07 07:52:42;;;;;;;10.10;5.68;;;;;;;18.00;42.15;100106.16;143752;562;46012;-75
2021/04/07 07:55:37;;;;;;;12.65;5.18;;;;;;;18.02;43.02;100119.31;143751;584;46018;-74
2021/04/07 07:58:06;;;;;;;11.90;5.47;;;;;;;18.02;43.25;100122.81;143754;578;46018;-73
2021/04/07 08:00:33;;;;;;;11.65;5.22;;;;;;;18.07;41.75;100123.75;143751;600;47010;-72
2021/04/07 08:03:14;;;;;;;12.80;4.78;;;;;;;18.19;42.20;100116.00;143749;574;48022;-73
2021/04/07 08:05:42;;;;;;;11.63;4.93;;;;;;;18.37;43.45;100111.78;143751;604;46012;-73
2021/04/07 08:08:11;;;;;;;14.15;5.00;;;;;;;18.38;43.79;100110.91;143752;577;46014;-73
2021/04/07 08:10:39;;;;;;;11.80;5.10;;;;;;;18.51;44.01;100122.44;143752;580;46018;-74
2021/04/07 08:13:10;;;;;;;11.40;4.90;;;;;;;18.64;43.17;100121.69;143750;575;46909;-74
2021/04/07 08:15:38;;;;;;;17.45;5.35;;;;;;;18.80;45.47;100110.47;143749;577;46018;-73
2021/04/07 08:18:07;;;;;;;16.17;5.43;;;;;;;18.89;42.44;100102.66;143752;591;46012;-73
2021/04/07 08:20:36;;;;;;;11.90;5.12;;;;;;;19.10;43.58;100111.56;143749;595;48012;-73
2021/04/07 08:23:05;;;;;;;14.98;5.35;;;;;;;19.20;42.19;100099.38;143747;581;48023;-74
2021/04/07 08:25:33;;;;;;;19.73;5.80;;;;;;;19.39;42.05;100099.47;143747;621;47018;-74
2021/04/07 08:28:01;;;;;;;15.43;4.87;;;;;;;19.37;41.86;100090.69;143750;575;46013;-73
2021/04/07 08:30:28;;;;;;;11.38;5.35;;;;;;;19.52;40.25;100097.78;143752;616;46021;-75
2021/04/07 08:32:56;;;;;;;14.38;5.50;;;;;;;19.54;40.40;100092.53;143751;562;46012;-78
2021/04/07 08:35:25;;;;;;;13.05;4.57;;;;;;;19.64;41.80;100103.97;143752;596;46018;-77
2021/04/07 08:38:27;;;;;;;13.77;5.05;;;;;;;19.65;39.24;100105.75;143749;563;46018;-80
2021/04/07 08:41:06;;;;;;;12.45;5.18;;;;;;;19.60;40.73;100098.72;143751;577;47010;-80
2021/04/07 08:43:34;;;;;;;14.45;5.12;;;;;;;19.62;42.06;100101.31;143753;587;46013;-81
2021/04/07 08:46:12;;;;;;;12.63;5.12;;;;;;;19.61;41.89;100094.31;143754;563;46012;-80
2021/04/07 08:48:39;;;;;;;12.25;5.40;;;;;;;19.64;40.98;100086.47;143752;600;46012;-77
2021/04/07 08:51:08;;;;;;;13.23;5.20;;;;;;;19.70;41.64;100083.00;143752;620;46019;-79
2021/04/07 08:53:40;;;;;;;14.18;5.18;;;;;;;19.68;41.65;100079.47;143748;636;46020;-80
2021/04/07 08:56:10;;;;;;;10.57;4.87;;;;;;;19.81;41.13;100087.44;143750;608;47008;-76
2021/04/07 08:58:54;;;;;;;11.10;4.87;;;;;;;19.98;42.27;100087.47;143745;584;47013;-78
2021/04/07 09:01:35;;;;;;;15.85;4.60;;;;;;;20.12;41.00;100089.25;143754;598;46012;-79
2021/04/07 09:04:18;;;;;;;15.77;4.72;;;;;;;20.17;40.24;100077.87;143752;597;46018;-77
2021/04/07 09:06:59;;;;;;;9.23;5.10;;;;;;;20.15;39.80;100084.87;143751;562;46019;-79
2021/04/07 09:09:27;;;;;;;13.13;4.68;;;;;;;20.21;40.45;100086.62;143754;575;46012;-78
2021/04/07 09:11:55;;;;;;;14.43;5.10;;;;;;;20.32;40.46;100092.81;143751;644;48012;-78
2021/04/07 09:14:22;;;;;;;13.45;4.68;;;;;;;20.30;38.85;100082.25;143749;584;48021;-77
2021/04/07 09:17:00;;;;;;;16.75;5.22;;;;;;;20.42;41.41;100086.69;143748;577;47008;-78
2021/04/07 09:19:29;;;;;;;11.02;4.75;;;;;;;20.24;37.48;100084.00;143750;610;46013;-78
2021/04/07 09:22:21;;;;;;;15.30;4.87;;;;;;;20.17;39.03;100077.00;143756;581;46012;-77
2021/04/07 09:24:48;;;;;;;13.32;4.75;;;;;;;20.04;38.54;100087.50;143744;609;48020;-77
2021/04/07 09:27:25;;;;;;;7.93;4.28;;;;;;;20.12;40.83;100087.50;143751;617;46018;-77
2021/04/07 09:30:04;;;;;;;9.82;4.30;;;;;;;20.17;40.85;100095.41;143751;607;46014;-78
2021/04/07 09:32:38;;;;;;;13.30;5.50;;;;;;;20.24;41.16;100089.28;143754;596;46018;-81
2021/04/07 09:35:10;;;;;;;17.95;5.43;;;;;;;20.36;42.02;100076.12;143751;583;46013;-79
2021/04/07 09:37:40;;;;;;;14.32;7.40;;;;;;;20.50;41.81;100081.44;143753;568;46012;-81
2021/04/07 09:40:16;;;;;;;14.85;6.12;;;;;;;20.53;40.76;100079.72;143753;601;46020;-83
2021/04/07 09:42:43;;;;;;;13.27;6.43;;;;;;;20.55;41.29;100086.72;143752;613;48012;-79
2021/04/07 09:45:22;;;;;;;10.80;4.20;;;;;;;20.51;37.19;100085.81;143748;584;48021;-78
2021/04/07 09:47:56;;;;;;;10.98;4.53;;;;;;;20.35;37.01;100082.28;143750;572;46018;-79
2021/04/07 09:50:33;;;;;;;12.52;4.37;;;;;;;20.33;36.51;100059.47;143751;564;46033;-81
2021/04/07 09:53:00;;;;;;;12.98;4.85;;;;;;;20.39;35.41;100073.50;143754;599;45032;-83
2021/04/07 09:55:30;;;;;;;18.10;4.95;;;;;;;20.39;36.10;100083.16;143749;568;46012;-84
2021/04/07 09:58:02;;;;;;;15.60;4.90;;;;;;;20.36;35.26;100086.66;143751;585;46011;-83
2021/04/07 10:00:36;;;;;;;14.80;4.85;;;;;;;20.37;35.63;100096.31;143751;631;46012;-86
2021/04/07 10:03:04;;;;;;;16.83;5.55;;;;;;;20.53;35.32;100098.16;143754;640;45018;-81
2021/04/07 10:05:32;;;;;;;11.93;4.97;;;;;;;20.76;35.21;100082.31;143750;578;46013;-78
2021/04/07 10:08:23;;;;;;;12.85;4.80;;;;;;;21.00;35.54;100093.75;143750;587;46012;-79
2021/04/07 10:10:51;;;;;;;14.07;4.43;;;;;;;21.22;35.40;100082.25;143332;61;69289;-78
2021/04/07 10:13:18;;;;;;;10.60;4.00;;;;;;;21.26;34.77;100084.91;143754;636;48015;-79
2021/04/07 10:15:46;;;;;;;10.40;4.82;;;;;;;21.26;35.44;100112.13;143751;625;47022;-79
2021/04/07 10:18:14;;;;;;;11.65;4.15;;;;;;;21.34;34.54;100101.56;143754;568;46012;-79
2021/04/07 10:20:42;;;;;;;14.30;4.75;;;;;;;21.56;34.67;100097.16;143752;568;46012;-81
2021/04/07 10:23:16;;;;;;;20.80;4.85;;;;;;;21.71;34.23;100104.09;143754;568;46018;-80
2021/04/07 10:25:43;;;;;;;9.93;3.77;;;;;;;22.02;34.33;100092.50;143751;588;46018;-83
2021/04/07 10:28:19;;;;;;;7.30;3.65;;;;;;;22.08;33.46;100092.47;143750;586;46019;-84
2021/04/07 10:30:46;;;;;;;14.70;4.35;;;;;;;22.17;33.41;100104.78;143753;591;46012;-81
2021/04/07 10:33:14;;;;;;;12.68;4.15;;;;;;;22.26;33.58;100107.38;143752;574;47012;-79
2021/04/07 10:35:41;;;;;;;8.55;4.28;;;;;;;22.45;33.46;100107.25;143752;814;46013;-75
2021/04/07 10:38:13;;;;;;;19.65;4.60;;;;;;;22.52;33.39;100114.25;143752;622;46012;-81
2021/04/07 10:40:41;;;;;;;15.90;4.93;;;;;;;22.66;32.27;100103.59;143752;568;46014;-76
2021/04/07 10:43:18;;;;;;;10.98;4.25;;;;;;;22.83;33.78;100101.66;143754;671;46018;-76
2021/04/07 10:46:06;;;;;;;13.68;3.97;;;;;;;22.72;32.47;100104.41;143748;565;48022;-75
2021/04/07 10:48:34;;;;;;;11.70;4.37;;;;;;;22.63;33.50;100109.75;143751;562;46018;-92
2021/04/07 10:51:01;;;;;;;14.57;4.25;;;;;;;22.63;33.91;100108.88;143754;565;46012;-76
2021/04/07 10:53:42;;;;;;;10.52;4.25;;;;;;;22.79;33.37;100119.31;143754;617;47591;-76
2021/04/07 10:56:18;;;;;;;12.35;4.15;;;;;;;22.71;33.12;100104.41;143750;568;46020;-75
2021/04/07 10:58:51;;;;;;;12.00;3.78;;;;;;;22.90;33.09;100099.88;143751;655;46018;-77
2021/04/07 11:01:36;;;;;;;13.97;4.10;;;;;;;23.20;34.47;100104.00;143738;567;46018;-76
2021/04/07 11:04:22;;;;;;;;;;;;;;;23.02;32.78;100099.75;143744;982;48012;-79
2021/04/07 11:06:58;;;;;;;10.63;3.92;;;;;;;23.03;32.76;100105.03;143750;597;46010;-85
2021/04/07 11:09:32;;;;;;;13.45;3.80;;;;;;;22.90;33.18;100106.03;143738;569;46010;-80
2021/04/07 11:12:01;;;;;;;11.38;4.30;;;;;;;22.99;33.19;100105.06;143740;578;46017;-78
2021/04/07 11:14:28;;;;;;;12.93;5.05;;;;;;;22.94;33.42;100120.12;143740;562;46018;-75
2021/04/07 11:17:00;;;;;;;9.57;3.95;;;;;;;22.83;34.35;100102.56;143739;689;46010;-76
2021/04/07 11:19:38;;;;;;;14.80;5.20;;;;;;;22.60;34.43;100083.38;143740;593;46008;-78
2021/04/07 11:22:07;;;;;;;14.55;4.30;;;;;;;23.32;33.69;100092.41;143740;713;46016;-74
2021/04/07 11:24:35;;;;;;;8.25;4.05;;;;;;;23.90;33.03;100092.63;143739;613;49010;-76
2021/04/07 11:27:02;;;;;;;8.85;3.87;;;;;;;24.52;32.54;100089.13;143735;564;48020;-73
2021/04/07 11:29:29;;;;;;;11.00;4.00;;;;;;;24.51;31.17;100088.22;143739;562;46010;-79
2021/04/07 11:31:58;;;;;;;20.37;4.32;;;;;;;25.17;30.26;100097.75;143741;578;46010;-77